createdAt,value
2022-09-30T00:01:04.636Z,4.10
2022-09-30T00:03:31.061Z,3.25
2022-09-30T00:06:08.118Z,3.10
2022-09-30T00:08:36.262Z,3.55
2022-09-30T00:11:08.176Z,3.42
2022-09-30T00:13:40.155Z,3.25
2022-09-30T00:16:07.746Z,3.55
2022-09-30T00:18:34.200Z,3.20
2022-09-30T00:21:01.908Z,3.55
2022-09-30T00:23:28.337Z,3.63
2022-09-30T00:26:03.821Z,3.67
2022-09-30T00:28:30.779Z,4.20
2022-09-30T00:31:02.414Z,4.35
2022-09-30T00:33:28.954Z,4.30
2022-09-30T00:35:55.381Z,4.30
2022-09-30T00:38:21.801Z,3.83
2022-09-30T00:40:48.908Z,4.25
2022-09-30T00:43:20.251Z,4.22
2022-09-30T00:45:54.703Z,4.70
2022-09-30T00:48:35.529Z,4.10
2022-09-30T00:51:05.037Z,4.43
2022-09-30T00:53:41.558Z,4.85
2022-09-30T00:56:13.291Z,4.97
2022-09-30T00:58:46.935Z,4.90
2022-09-30T01:01:15.071Z,5.63
2022-09-30T01:03:45.554Z,6.20
2022-09-30T01:06:12.288Z,5.43
2022-09-30T01:08:40.398Z,5.15
2022-09-30T01:11:08.306Z,4.32
2022-09-30T01:13:37.024Z,5.20
2022-09-30T01:16:16.004Z,5.13
2022-09-30T01:18:49.112Z,4.90
2022-09-30T01:21:43.116Z,5.35
2022-09-30T01:24:36.212Z,4.80
2022-09-30T01:27:21.368Z,5.03
2022-09-30T01:29:53.807Z,5.00
2022-09-30T01:32:54.041Z,3.65
2022-09-30T01:35:48.814Z,4.40
2022-09-30T01:38:29.270Z,3.05
2022-09-30T01:41:13.425Z,2.70
2022-09-30T01:43:55.167Z,3.20
2022-09-30T01:46:55.746Z,2.60
2022-09-30T01:49:28.016Z,2.67
2022-09-30T01:52:18.187Z,2.80
2022-09-30T01:55:10.678Z,2.13
2022-09-30T01:57:52.745Z,2.35
2022-09-30T02:00:19.509Z,2.25
2022-09-30T02:02:49.111Z,2.50
2022-09-30T02:05:32.584Z,2.38
2022-09-30T02:08:03.801Z,3.95
2022-09-30T02:13:04.422Z,2.17
2022-09-30T02:15:40.245Z,2.33
2022-09-30T02:18:22.501Z,3.47
2022-09-30T02:20:53.164Z,2.00
2022-09-30T02:23:25.807Z,1.77
2022-09-30T02:26:01.657Z,1.63
2022-09-30T02:28:30.276Z,1.80
2022-09-30T02:31:00.829Z,1.63
2022-09-30T02:33:43.032Z,1.33
2022-09-30T02:36:21.212Z,1.70
2022-09-30T02:38:54.608Z,1.70
2022-09-30T02:41:27.051Z,1.67
2022-09-30T02:43:55.685Z,2.30
2022-09-30T02:46:43.650Z,1.63
2022-09-30T02:49:39.012Z,2.65
2022-09-30T02:52:24.135Z,1.90
2022-09-30T02:55:18.691Z,2.42
2022-09-30T02:57:51.028Z,1.75
2022-09-30T03:00:17.856Z,2.03
2022-09-30T03:02:44.336Z,1.90
2022-09-30T03:05:11.773Z,2.17
2022-09-30T03:07:38.533Z,1.85
2022-09-30T03:10:16.818Z,2.17
2022-09-30T03:12:49.057Z,1.88
2022-09-30T03:15:30.712Z,2.20
2022-09-30T03:18:30.315Z,2.00
2022-09-30T03:21:21.596Z,2.05
2022-09-30T03:24:11.049Z,1.70
2022-09-30T03:26:55.118Z,2.53
2022-09-30T03:29:31.645Z,2.10
2022-09-30T03:32:12.499Z,2.55
2022-09-30T03:35:07.049Z,2.10
2022-09-30T03:37:48.028Z,1.77
2022-09-30T03:40:43.632Z,1.90
2022-09-30T03:43:21.213Z,2.75
2022-09-30T03:46:03.037Z,2.22
2022-09-30T03:48:33.334Z,2.22
2022-09-30T03:51:00.668Z,1.83
2022-09-30T03:53:28.461Z,1.65
2022-09-30T03:55:55.080Z,2.08
2022-09-30T03:58:26.055Z,1.67
2022-09-30T04:00:54.243Z,1.77
2022-09-30T04:03:23.337Z,2.50
2022-09-30T04:05:50.058Z,1.98
2022-09-30T04:08:17.081Z,2.65
2022-09-30T04:10:44.006Z,2.30
2022-09-30T04:13:11.307Z,2.72
2022-09-30T04:15:38.230Z,3.13
2022-09-30T04:18:05.325Z,3.00
2022-09-30T04:20:32.334Z,3.03
2022-09-30T04:23:00.329Z,3.63
2022-09-30T04:25:28.082Z,3.55
2022-09-30T04:27:55.284Z,3.10
2022-09-30T04:30:25.573Z,3.13
2022-09-30T04:32:53.792Z,3.95
2022-09-30T04:35:20.433Z,4.32
2022-09-30T04:37:47.459Z,3.72
2022-09-30T04:40:15.972Z,3.75
2022-09-30T04:42:43.198Z,4.45
2022-09-30T04:45:13.584Z,4.32
2022-09-30T04:47:45.815Z,4.40
2022-09-30T04:50:14.020Z,4.40
2022-09-30T04:52:43.814Z,4.18
2022-09-30T04:55:10.877Z,4.55
2022-09-30T04:57:37.616Z,3.88
2022-09-30T05:00:05.121Z,3.47
2022-09-30T05:02:32.067Z,3.70
2022-09-30T05:04:58.462Z,4.57
2022-09-30T05:07:24.884Z,3.92
2022-09-30T05:09:53.176Z,4.90
2022-09-30T05:12:19.549Z,3.92
2022-09-30T05:14:45.943Z,4.18
2022-09-30T05:17:12.377Z,3.58
2022-09-30T05:19:38.783Z,4.63
2022-09-30T05:22:05.260Z,3.65
2022-09-30T05:24:31.726Z,4.05
2022-09-30T05:26:58.174Z,4.18
2022-09-30T05:29:24.616Z,3.78
2022-09-30T05:31:51.099Z,4.10
2022-09-30T05:34:17.575Z,3.78
2022-09-30T05:36:44.262Z,4.82
2022-09-30T05:39:11.523Z,4.63
2022-09-30T05:41:38.349Z,4.03
2022-09-30T05:44:05.326Z,3.53
2022-09-30T05:46:31.797Z,3.63
2022-09-30T05:48:58.236Z,3.67
2022-09-30T05:51:24.654Z,4.18
2022-09-30T05:53:51.937Z,3.85
2022-09-30T05:56:18.745Z,4.00
2022-09-30T05:58:45.165Z,3.38
2022-09-30T06:01:14.570Z,3.00
2022-09-30T06:03:46.645Z,3.30
2022-09-30T06:06:14.033Z,2.97
2022-09-30T06:08:41.277Z,3.42
2022-09-30T06:11:12.881Z,3.80
2022-09-30T06:13:40.757Z,3.75
2022-09-30T06:16:08.475Z,2.45
2022-09-30T06:18:35.581Z,3.67
2022-09-30T06:21:04.630Z,2.85
2022-09-30T06:23:32.281Z,3.85
2022-09-30T06:25:58.720Z,3.03
2022-09-30T06:28:25.383Z,3.67
2022-09-30T06:30:51.813Z,3.58
2022-09-30T06:33:18.375Z,3.33
2022-09-30T06:35:47.234Z,2.90
2022-09-30T06:38:17.325Z,3.92
2022-09-30T06:40:44.938Z,3.35
2022-09-30T06:43:11.561Z,2.97
2022-09-30T06:45:38.413Z,3.15
2022-09-30T06:48:09.018Z,3.03
2022-09-30T06:50:35.983Z,3.40
2022-09-30T06:53:06.281Z,2.90
2022-09-30T06:55:36.473Z,2.90
2022-09-30T06:58:02.903Z,3.50
2022-09-30T07:00:29.325Z,3.03
2022-09-30T07:02:59.097Z,2.70
2022-09-30T07:05:26.403Z,4.07
2022-09-30T07:07:54.059Z,3.25
2022-09-30T07:10:20.697Z,3.42
2022-09-30T07:12:51.944Z,2.85
2022-09-30T07:15:22.156Z,2.85
2022-09-30T07:17:56.727Z,2.63
2022-09-30T07:20:23.574Z,3.28
2022-09-30T07:22:50.095Z,2.95
2022-09-30T07:25:17.372Z,2.75
2022-09-30T07:27:44.520Z,3.67
2022-09-30T07:30:17.098Z,12.43
2022-09-30T07:32:47.584Z,13.27
2022-09-30T07:35:14.557Z,7.47
2022-09-30T07:37:41.010Z,2.95
2022-09-30T07:40:08.523Z,3.97
2022-09-30T07:42:40.246Z,7.70
2022-09-30T07:45:07.392Z,5.32
2022-09-30T07:47:35.760Z,10.75
2022-09-30T07:50:02.261Z,5.70
2022-09-30T07:52:31.603Z,4.47
2022-09-30T07:54:59.485Z,3.75
2022-09-30T07:57:29.861Z,4.85
2022-09-30T08:00:07.965Z,8.27
2022-09-30T08:02:45.907Z,4.18
2022-09-30T08:05:26.470Z,60.17
2022-09-30T08:07:52.927Z,22.30
2022-09-30T08:10:21.364Z,17.85
2022-09-30T08:12:47.862Z,10.20
2022-09-30T08:15:14.394Z,6.45
2022-09-30T08:17:41.338Z,26.65
2022-09-30T08:20:22.083Z,10.93
2022-09-30T08:25:18.514Z,4.90
2022-09-30T08:27:45.167Z,3.40
2022-09-30T08:30:15.017Z,3.35
2022-09-30T08:32:41.638Z,3.53
2022-09-30T08:35:17.684Z,3.40
2022-09-30T08:37:44.163Z,3.58
2022-09-30T08:40:30.604Z,3.38
2022-09-30T08:43:47.470Z,3.20
2022-09-30T08:46:37.557Z,2.97
2022-09-30T08:49:33.192Z,2.92
2022-09-30T08:52:01.728Z,3.13
2022-09-30T08:54:37.822Z,4.38
2022-09-30T08:57:06.615Z,2.88
2022-09-30T08:59:38.431Z,6.90
2022-09-30T09:02:22.994Z,3.30
2022-09-30T09:04:52.650Z,3.83
2022-09-30T09:07:45.208Z,2.78
2022-09-30T09:10:24.098Z,3.10
2022-09-30T09:13:04.069Z,3.90
2022-09-30T09:15:54.154Z,3.00
2022-09-30T09:18:42.552Z,2.90
2022-09-30T09:21:20.033Z,2.88
2022-09-30T09:23:48.750Z,2.85
2022-09-30T09:26:16.113Z,3.40
2022-09-30T09:29:00.101Z,2.60
2022-09-30T09:31:27.103Z,3.42
2022-09-30T09:33:59.763Z,3.00
2022-09-30T09:36:43.416Z,3.35
2022-09-30T09:39:15.846Z,3.10
2022-09-30T09:41:47.001Z,2.72
2022-09-30T09:46:50.890Z,2.63
2022-09-30T09:49:20.862Z,3.45
2022-09-30T09:51:54.665Z,2.92
2022-09-30T09:54:22.261Z,3.40
2022-09-30T09:56:52.904Z,3.10
2022-09-30T09:59:20.436Z,3.85
2022-09-30T10:01:53.490Z,3.08
2022-09-30T10:04:25.153Z,3.40
2022-09-30T10:06:56.244Z,4.18
2022-09-30T10:09:29.830Z,3.70
2022-09-30T10:12:05.503Z,2.67
2022-09-30T10:14:57.720Z,3.80
2022-09-30T10:17:33.304Z,3.45
2022-09-30T10:20:01.375Z,3.88
2022-09-30T10:22:30.744Z,3.10
2022-09-30T10:25:20.389Z,3.75
2022-09-30T10:27:50.281Z,4.05
2022-09-30T10:30:35.369Z,3.85
2022-09-30T10:33:06.543Z,4.20
2022-09-30T10:38:00.475Z,3.75
2022-09-30T10:40:29.498Z,4.72
2022-09-30T10:42:56.713Z,3.97
2022-09-30T10:45:29.573Z,4.03
2022-09-30T10:47:56.985Z,3.35
2022-09-30T10:50:27.581Z,4.03
2022-09-30T10:52:58.059Z,4.18
2022-09-30T10:55:54.270Z,3.50
2022-09-30T10:58:44.984Z,3.70
2022-09-30T11:01:28.203Z,4.38
2022-09-30T11:04:24.099Z,3.88
2022-09-30T11:06:58.110Z,3.20
2022-09-30T11:09:37.169Z,4.55
2022-09-30T11:12:30.325Z,3.25
2022-09-30T11:15:11.080Z,4.30
2022-09-30T11:17:50.457Z,4.93
2022-09-30T11:20:27.844Z,3.78
2022-09-30T11:23:11.531Z,3.10
2022-09-30T11:25:49.635Z,3.22
2022-09-30T11:28:32.245Z,4.10
2022-09-30T11:30:58.598Z,5.60
2022-09-30T11:33:42.690Z,5.25
2022-09-30T11:36:42.264Z,4.70
2022-09-30T11:39:25.000Z,6.47
2022-09-30T11:42:20.329Z,4.72
2022-09-30T11:44:48.253Z,6.38
2022-09-30T11:47:36.156Z,5.88
2022-09-30T11:50:17.372Z,4.25
2022-09-30T11:58:40.386Z,3.30
2022-09-30T12:01:27.456Z,4.55
2022-09-30T12:04:08.415Z,4.95
2022-09-30T12:06:43.578Z,5.53
2022-09-30T12:09:37.251Z,4.50
2022-09-30T12:12:12.428Z,4.20
2022-09-30T12:15:01.069Z,4.15
2022-09-30T12:17:34.107Z,4.63
2022-09-30T12:20:08.557Z,4.85
2022-09-30T12:22:41.689Z,4.32
2022-09-30T12:25:19.699Z,5.55
2022-09-30T12:27:49.464Z,4.18
2022-09-30T12:30:20.461Z,4.47
2022-09-30T12:32:56.154Z,5.43
2022-09-30T12:35:43.376Z,5.05
2022-09-30T12:38:44.204Z,4.75
2022-09-30T12:41:41.488Z,4.60
2022-09-30T12:44:34.300Z,4.40
2022-09-30T12:47:31.689Z,4.70
2022-09-30T12:50:00.677Z,5.80
2022-09-30T12:52:33.926Z,5.30
2022-09-30T12:55:07.328Z,4.75
2022-09-30T12:57:39.997Z,4.38
2022-09-30T13:00:15.809Z,4.97
2022-09-30T13:02:46.165Z,5.32
2022-09-30T13:05:45.086Z,5.25
2022-09-30T13:08:25.115Z,4.60
2022-09-30T13:11:03.485Z,4.10
2022-09-30T13:13:34.024Z,4.18
2022-09-30T13:16:06.732Z,4.70
2022-09-30T13:18:33.248Z,5.28
2022-09-30T13:21:05.589Z,6.30
2022-09-30T13:23:47.020Z,4.68
2022-09-30T13:26:22.699Z,4.40
2022-09-30T13:28:50.236Z,4.45
2022-09-30T13:31:19.750Z,5.60
2022-09-30T13:34:09.175Z,5.38
2022-09-30T13:36:56.675Z,5.22
2022-09-30T13:39:23.075Z,5.22
2022-09-30T13:42:01.224Z,4.13
2022-09-30T13:45:01.885Z,5.28
2022-09-30T13:47:33.669Z,5.75
2022-09-30T13:50:16.206Z,5.55
2022-09-30T13:52:45.756Z,6.97
2022-09-30T13:55:21.515Z,5.22
2022-09-30T13:58:02.171Z,5.32
2022-09-30T14:00:47.916Z,5.63
2022-09-30T14:03:38.658Z,5.60
2022-09-30T14:06:43.777Z,6.65
2022-09-30T14:09:29.671Z,5.90
2022-09-30T14:12:40.969Z,6.18
2022-09-30T14:15:30.672Z,6.72
2022-09-30T14:18:11.142Z,5.82
2022-09-30T14:20:58.360Z,6.90
2022-09-30T14:23:24.935Z,6.60
2022-09-30T14:26:09.780Z,6.50
2022-09-30T14:29:01.160Z,6.65
2022-09-30T14:33:56.523Z,6.97
2022-09-30T14:36:23.206Z,7.97
2022-09-30T14:38:54.709Z,7.90
2022-09-30T14:41:23.277Z,6.60
2022-09-30T14:43:56.511Z,6.63
2022-09-30T14:46:47.056Z,8.50
2022-09-30T14:49:17.207Z,7.97
2022-09-30T14:51:48.200Z,6.82
2022-09-30T14:54:22.197Z,7.45
2022-09-30T14:56:50.610Z,8.85
2022-09-30T14:59:20.695Z,8.02
2022-09-30T15:01:51.217Z,7.85
2022-09-30T15:04:22.800Z,8.23
2022-09-30T15:06:50.968Z,7.70
2022-09-30T15:09:38.716Z,9.35
2022-09-30T15:12:11.030Z,9.10
2022-09-30T15:14:53.951Z,8.38
2022-09-30T15:17:25.023Z,9.55
2022-09-30T15:19:51.518Z,8.18
2022-09-30T15:22:20.081Z,7.70
2022-09-30T15:24:48.156Z,8.93
2022-09-30T15:27:26.569Z,8.27
2022-09-30T15:30:21.729Z,9.20
2022-09-30T15:32:51.933Z,9.55
2022-09-30T15:35:30.917Z,9.03
2022-09-30T15:38:19.290Z,9.60
2022-09-30T15:40:50.477Z,9.52
2022-09-30T15:45:59.610Z,9.47
2022-09-30T15:48:26.476Z,10.45
2022-09-30T15:51:03.122Z,10.38
2022-09-30T15:53:33.405Z,12.20
2022-09-30T15:56:22.756Z,10.37
2022-09-30T15:58:59.197Z,9.45
2022-09-30T16:01:42.594Z,9.95
2022-09-30T16:04:26.481Z,9.52
2022-09-30T16:07:26.269Z,8.30
2022-09-30T16:09:57.733Z,8.77
2022-09-30T16:12:28.110Z,8.48
2022-09-30T16:15:07.324Z,8.82
2022-09-30T16:17:37.844Z,9.20
2022-09-30T16:20:08.481Z,9.40
2022-09-30T16:22:40.791Z,9.88
2022-09-30T16:25:31.625Z,10.57
2022-09-30T16:28:02.362Z,9.80
2022-09-30T16:30:30.016Z,8.50
2022-09-30T16:32:59.336Z,9.70
2022-09-30T16:35:28.474Z,10.38
2022-09-30T16:38:03.356Z,10.38
2022-09-30T16:40:31.482Z,8.30
2022-09-30T16:42:58.954Z,8.57
2022-09-30T16:45:27.209Z,7.82
2022-09-30T16:47:54.287Z,9.00
2022-09-30T16:51:10.968Z,8.57
2022-09-30T16:53:37.499Z,7.80
2022-09-30T16:56:04.722Z,8.00
2022-09-30T16:58:31.732Z,8.63
2022-09-30T17:01:00.418Z,9.63
2022-09-30T17:03:27.079Z,8.13
2022-09-30T17:05:54.033Z,9.50
2022-09-30T17:08:21.642Z,10.27
2022-09-30T17:10:49.974Z,9.07
2022-09-30T17:13:18.173Z,8.25
2022-09-30T17:15:51.925Z,9.18
2022-09-30T17:18:19.490Z,9.10
2022-09-30T17:20:52.388Z,9.43
2022-09-30T17:23:24.109Z,11.52
2022-09-30T17:25:51.607Z,9.20
2022-09-30T17:28:18.140Z,8.63
2022-09-30T17:30:47.734Z,7.97
2022-09-30T17:33:15.012Z,8.05
2022-09-30T17:35:41.510Z,7.82
2022-09-30T17:38:09.047Z,13.30
2022-09-30T17:40:54.031Z,14.13
2022-09-30T17:43:20.776Z,9.27
2022-09-30T17:45:47.805Z,6.95
2022-09-30T17:48:16.254Z,7.72
2022-09-30T17:50:45.505Z,9.48
2022-09-30T17:53:14.269Z,6.95
2022-09-30T17:55:41.440Z,8.73
2022-09-30T17:58:09.310Z,8.38
2022-09-30T18:00:36.422Z,7.30
2022-09-30T18:03:03.249Z,7.25
2022-09-30T18:05:30.654Z,6.03
2022-09-30T18:07:57.307Z,7.82
2022-09-30T18:10:24.550Z,7.40
2022-09-30T18:12:53.669Z,9.13
2022-09-30T18:15:20.593Z,9.13
2022-09-30T18:17:47.117Z,8.93
2022-09-30T18:20:14.270Z,8.23
2022-09-30T18:22:41.111Z,7.03
2022-09-30T18:25:20.162Z,7.47
2022-09-30T18:27:48.439Z,7.75
2022-09-30T18:30:15.297Z,8.02
2022-09-30T18:32:42.139Z,7.43
2022-09-30T18:35:12.222Z,7.38
2022-09-30T18:37:39.902Z,7.72
2022-09-30T18:40:06.976Z,8.68
2022-09-30T18:42:33.467Z,7.72
2022-09-30T18:44:59.853Z,8.70
2022-09-30T18:47:26.284Z,14.70
2022-09-30T18:49:52.784Z,17.48
2022-09-30T18:52:19.190Z,12.02
2022-09-30T18:54:45.577Z,8.68
2022-09-30T18:57:11.965Z,7.80
2022-09-30T18:59:38.369Z,7.70
2022-09-30T19:02:04.881Z,10.15
2022-09-30T19:04:31.293Z,9.40
2022-09-30T19:06:57.739Z,7.70
2022-09-30T19:09:26.506Z,6.63
2022-09-30T19:11:55.723Z,7.43
2022-09-30T19:14:23.648Z,6.93
2022-09-30T19:16:51.787Z,6.68
2022-09-30T19:19:20.368Z,7.20
2022-09-30T19:21:48.723Z,9.15
2022-09-30T19:24:17.140Z,7.13
2022-09-30T19:26:43.876Z,7.60
2022-09-30T19:29:11.000Z,7.25
2022-09-30T19:31:37.897Z,8.60
2022-09-30T19:34:05.224Z,10.10
2022-09-30T19:36:40.716Z,10.57
2022-09-30T19:39:12.495Z,9.77
2022-09-30T19:41:39.158Z,20.13
2022-09-30T19:44:05.595Z,41.28
2022-09-30T19:46:32.193Z,46.08
2022-09-30T19:48:58.833Z,38.40
2022-09-30T19:51:26.337Z,39.97
2022-09-30T19:54:04.944Z,42.28
2022-09-30T19:56:34.902Z,48.13
2022-09-30T19:59:01.392Z,32.17
2022-09-30T20:01:29.524Z,16.83
2022-09-30T20:03:57.682Z,12.90
2022-09-30T20:06:24.230Z,9.85
2022-09-30T20:08:52.990Z,15.43
2022-09-30T20:11:21.907Z,12.95
2022-09-30T20:14:11.251Z,11.32
2022-09-30T20:16:38.127Z,11.27
2022-09-30T20:19:04.630Z,12.68
2022-09-30T20:21:31.388Z,11.45
2022-09-30T20:23:59.733Z,11.05
2022-09-30T20:26:26.403Z,10.10
2022-09-30T20:28:57.814Z,13.65
2022-09-30T20:31:25.444Z,12.35
2022-09-30T20:33:56.609Z,10.55
2022-09-30T20:36:24.098Z,11.40
2022-09-30T20:38:51.704Z,10.60
2022-09-30T20:41:18.198Z,9.32
2022-09-30T20:43:49.246Z,10.55
2022-09-30T20:46:15.666Z,10.77
2022-09-30T20:48:42.172Z,11.57
2022-09-30T20:51:12.383Z,10.70
2022-09-30T20:53:44.426Z,10.80
2022-09-30T20:56:15.130Z,9.25
2022-09-30T20:58:42.177Z,9.65
2022-09-30T21:01:19.982Z,10.32
2022-09-30T21:03:52.540Z,10.00
2022-09-30T21:06:29.467Z,10.10
2022-09-30T21:08:56.852Z,11.68
2022-09-30T21:11:24.000Z,11.70
2022-09-30T21:13:52.680Z,11.05
2022-09-30T21:16:22.010Z,11.93
2022-09-30T21:18:52.049Z,11.45
2022-09-30T21:21:19.770Z,11.73
2022-09-30T21:23:46.197Z,11.23
2022-09-30T21:26:14.923Z,14.13
2022-09-30T21:28:45.578Z,13.57
2022-09-30T21:31:21.108Z,13.48
2022-09-30T21:33:51.591Z,12.43
2022-09-30T21:36:18.160Z,13.00
2022-09-30T21:38:44.577Z,12.10
2022-09-30T21:41:10.960Z,12.27
2022-09-30T21:43:37.808Z,12.32
2022-09-30T21:46:06.860Z,12.18
2022-09-30T21:48:35.097Z,11.77
2022-09-30T21:51:02.549Z,12.45
2022-09-30T21:53:29.376Z,13.00
2022-09-30T21:55:57.758Z,14.18
2022-09-30T21:58:25.920Z,12.95
2022-09-30T22:00:56.678Z,13.85
2022-09-30T22:03:23.607Z,14.18
2022-09-30T22:05:53.968Z,15.73
2022-09-30T22:08:21.088Z,14.70
2022-09-30T22:10:47.956Z,14.95
2022-09-30T22:13:18.325Z,14.05
2022-09-30T22:15:46.603Z,15.87
2022-09-30T22:18:17.274Z,17.08
2022-09-30T22:20:44.560Z,19.10
2022-09-30T22:23:11.650Z,19.38
2022-09-30T22:25:38.300Z,17.25
2022-09-30T22:28:05.185Z,37.90
2022-09-30T22:30:32.885Z,32.92
2022-09-30T22:33:17.750Z,22.60
2022-09-30T22:36:03.062Z,32.33
2022-09-30T22:38:29.616Z,36.83
2022-09-30T22:40:56.069Z,43.25
2022-09-30T22:43:24.430Z,21.25
2022-09-30T22:46:05.133Z,28.55
2022-09-30T22:48:32.430Z,21.08
2022-09-30T22:50:59.314Z,20.67
2022-09-30T22:53:27.390Z,20.55
2022-09-30T22:55:54.284Z,39.00
2022-09-30T22:58:23.249Z,39.83
2022-09-30T23:00:52.846Z,25.92
2022-09-30T23:03:19.361Z,37.45
2022-09-30T23:05:46.357Z,27.10
2022-09-30T23:08:12.740Z,20.17
2022-09-30T23:10:46.288Z,19.45
2022-09-30T23:13:13.311Z,18.13
2022-09-30T23:15:39.773Z,18.70
2022-09-30T23:18:06.205Z,17.08
2022-09-30T23:20:32.933Z,18.13
2022-09-30T23:22:59.329Z,18.55
2022-09-30T23:25:25.721Z,16.67
2022-09-30T23:27:52.150Z,18.40
2022-09-30T23:30:18.675Z,17.45
2022-09-30T23:32:45.100Z,17.27
2022-09-30T23:35:12.998Z,16.73
2022-09-30T23:37:39.701Z,16.52
2022-09-30T23:40:06.781Z,16.45
2022-09-30T23:42:33.293Z,18.20
2022-09-30T23:44:59.747Z,20.35
2022-09-30T23:47:27.316Z,19.10
2022-09-30T23:49:55.340Z,17.17
2022-09-30T23:52:21.789Z,16.00
2022-09-30T23:54:48.233Z,17.30
2022-09-30T23:57:14.736Z,17.38
2022-09-30T23:59:41.181Z,15.45
